createdAt,value
2019-01-18T00:00:40.894Z,8.20
2019-01-18T00:03:09.622Z,6.60
2019-01-18T00:05:38.718Z,6.63
2019-01-18T00:08:07.509Z,4.43
2019-01-18T00:10:36.685Z,7.63
2019-01-18T00:13:05.866Z,9.80
2019-01-18T00:15:35.051Z,5.70
2019-01-18T00:18:04.337Z,4.40
2019-01-18T00:20:33.493Z,6.93
2019-01-18T00:23:02.276Z,7.80
2019-01-18T00:25:30.949Z,6.53
2019-01-18T00:27:59.656Z,8.17
2019-01-18T00:30:28.361Z,6.23
2019-01-18T00:32:57.070Z,5.30
2019-01-18T00:35:25.848Z,10.50
2019-01-18T00:37:54.467Z,11.87
2019-01-18T00:40:23.605Z,11.53
2019-01-18T00:42:52.666Z,9.20
2019-01-18T00:45:21.772Z,10.00
2019-01-18T00:47:50.514Z,5.97
2019-01-18T00:50:20.896Z,4.17
2019-01-18T00:52:49.667Z,6.40
2019-01-18T00:55:18.947Z,4.50
2019-01-18T00:57:48.879Z,8.30
2019-01-18T01:00:23.354Z,4.80
2019-01-18T01:02:52.221Z,6.60
2019-01-18T01:05:21.121Z,4.20
2019-01-18T01:07:49.887Z,3.90
2019-01-18T01:10:19.078Z,10.33
2019-01-18T01:12:48.244Z,8.10
2019-01-18T01:15:19.801Z,4.47
2019-01-18T01:17:48.758Z,6.80
2019-01-18T01:20:21.883Z,7.37
2019-01-18T01:22:51.144Z,6.20
2019-01-18T01:25:20.260Z,4.50
2019-01-18T01:27:50.002Z,9.37
2019-01-18T01:30:24.224Z,7.33
2019-01-18T01:32:53.848Z,6.30
2019-01-18T01:35:22.679Z,5.17
2019-01-18T01:37:51.785Z,5.50
2019-01-18T01:40:22.761Z,8.40
2019-01-18T01:42:51.838Z,6.60
2019-01-18T01:45:20.685Z,4.67
2019-01-18T01:47:49.380Z,7.43
2019-01-18T01:50:20.996Z,7.70
2019-01-18T01:52:49.782Z,5.00
2019-01-18T01:55:18.931Z,8.93
2019-01-18T01:57:47.971Z,4.60
2019-01-18T02:00:18.936Z,4.63
2019-01-18T02:02:47.792Z,6.90
2019-01-18T02:05:16.741Z,6.10
2019-01-18T02:07:45.982Z,3.80
2019-01-18T02:10:16.692Z,4.60
2019-01-18T02:12:45.861Z,4.20
2019-01-18T02:15:17.173Z,5.40
2019-01-18T02:17:45.924Z,5.27
2019-01-18T02:20:19.617Z,4.00
2019-01-18T02:22:48.865Z,5.97
2019-01-18T02:25:17.655Z,5.37
2019-01-18T02:27:46.991Z,4.53
2019-01-18T02:30:18.594Z,7.87
2019-01-18T02:32:47.292Z,4.43
2019-01-18T02:35:16.499Z,3.80
2019-01-18T02:37:45.290Z,8.73
2019-01-18T02:40:15.902Z,8.00
2019-01-18T02:42:44.986Z,5.20
2019-01-18T02:45:16.306Z,2.20
2019-01-18T02:47:45.046Z,6.10
2019-01-18T02:50:14.398Z,2.83
2019-01-18T02:52:43.187Z,6.10
2019-01-18T02:55:12.132Z,4.77
2019-01-18T02:57:40.947Z,4.67
2019-01-18T03:00:12.874Z,4.30
2019-01-18T03:02:41.728Z,6.57
2019-01-18T03:05:12.482Z,4.80
2019-01-18T03:07:41.544Z,3.73
2019-01-18T03:10:24.698Z,7.50
2019-01-18T03:12:53.489Z,8.00
2019-01-18T03:15:22.231Z,6.10
2019-01-18T03:17:50.964Z,3.90
2019-01-18T03:20:20.412Z,6.20
2019-01-18T03:22:49.477Z,6.20
2019-01-18T03:25:20.814Z,5.07
2019-01-18T03:27:49.584Z,5.50
2019-01-18T03:30:20.616Z,5.53
2019-01-18T03:32:49.961Z,5.13
2019-01-18T03:35:20.932Z,6.83
2019-01-18T03:37:49.697Z,8.37
2019-01-18T03:40:20.645Z,8.47
2019-01-18T03:42:49.596Z,5.53
2019-01-18T03:45:19.878Z,8.20
2019-01-18T03:47:48.794Z,8.47
2019-01-18T03:50:25.206Z,3.63
2019-01-18T03:52:54.345Z,5.80
2019-01-18T03:55:23.150Z,5.70
2019-01-18T03:57:52.255Z,6.57
2019-01-18T04:00:26.254Z,4.97
2019-01-18T04:02:53.338Z,13.17
2019-01-18T04:05:22.180Z,7.60
2019-01-18T04:07:51.294Z,9.13
2019-01-18T04:10:21.565Z,7.87
2019-01-18T04:12:50.319Z,5.20
2019-01-18T04:15:21.175Z,7.50
2019-01-18T04:17:50.055Z,7.00
2019-01-18T04:20:20.235Z,6.83
2019-01-18T04:22:49.465Z,6.83
2019-01-18T04:25:28.810Z,16.93
2019-01-18T04:27:57.479Z,9.40
2019-01-18T04:30:33.267Z,8.40
2019-01-18T04:32:56.957Z,14.60
2019-01-18T04:35:25.703Z,8.23
2019-01-18T04:37:54.530Z,4.40
2019-01-18T04:40:27.782Z,11.40
2019-01-18T04:42:57.269Z,6.40
2019-01-18T04:45:26.015Z,8.97
2019-01-18T04:47:54.857Z,8.83
2019-01-18T04:50:25.621Z,6.97
2019-01-18T04:52:54.400Z,10.73
2019-01-18T04:55:23.256Z,7.93
2019-01-18T04:57:52.068Z,9.43
2019-01-18T05:00:25.822Z,7.07
2019-01-18T05:02:54.584Z,7.07
2019-01-18T05:05:23.357Z,9.20
2019-01-18T05:07:52.283Z,7.83
2019-01-18T05:10:23.030Z,6.97
2019-01-18T05:12:51.843Z,8.33
2019-01-18T05:15:22.814Z,8.70
2019-01-18T05:17:51.492Z,6.07
2019-01-18T05:20:20.643Z,8.63
2019-01-18T05:22:49.456Z,10.70
2019-01-18T05:25:18.208Z,7.33
2019-01-18T05:27:47.403Z,9.70
2019-01-18T05:30:21.911Z,9.07
2019-01-18T05:32:50.634Z,10.27
2019-01-18T05:35:19.316Z,5.87
2019-01-18T05:37:48.277Z,5.93
2019-01-18T05:40:19.976Z,7.20
2019-01-18T05:42:49.441Z,8.07
2019-01-18T05:45:20.249Z,8.63
2019-01-18T05:47:49.032Z,10.73
2019-01-18T05:50:19.802Z,12.93
2019-01-18T05:52:48.651Z,11.23
2019-01-18T05:55:17.430Z,8.93
2019-01-18T05:57:46.197Z,10.93
2019-01-18T06:00:22.350Z,6.00
2019-01-18T06:02:51.518Z,6.30
2019-01-18T06:05:20.861Z,5.13
2019-01-18T06:07:49.641Z,10.87
2019-01-18T06:10:18.372Z,5.80
2019-01-18T06:12:47.156Z,10.40
2019-01-18T06:15:15.878Z,11.00
2019-01-18T06:17:44.933Z,9.50
2019-01-18T06:20:15.917Z,8.00
2019-01-18T06:22:44.766Z,7.97
2019-01-18T06:25:13.558Z,9.13
2019-01-18T06:27:42.321Z,10.00
2019-01-18T06:30:14.582Z,11.30
2019-01-18T06:32:43.317Z,6.97
2019-01-18T06:35:12.702Z,6.97
2019-01-18T06:37:41.865Z,7.80
2019-01-18T06:40:13.581Z,14.57
2019-01-18T06:42:42.685Z,9.43
2019-01-18T06:45:14.245Z,10.07
2019-01-18T06:47:43.028Z,10.07
2019-01-18T06:50:13.876Z,9.47
2019-01-18T06:52:42.685Z,11.27
2019-01-18T06:55:12.512Z,10.50
2019-01-18T06:57:41.316Z,11.03
2019-01-18T07:00:13.504Z,13.67
2019-01-18T07:02:42.315Z,10.90
2019-01-18T07:05:11.130Z,8.27
2019-01-18T07:07:39.832Z,13.83
2019-01-18T07:10:20.464Z,8.40
2019-01-18T07:12:45.455Z,12.07
2019-01-18T07:15:14.328Z,16.37
2019-01-18T07:17:43.101Z,12.50
2019-01-18T07:20:14.337Z,11.93
2019-01-18T07:22:43.195Z,13.73
2019-01-18T07:25:21.150Z,10.40
2019-01-18T07:27:50.333Z,12.50
2019-01-18T07:30:27.162Z,13.70
2019-01-18T07:32:55.962Z,12.90
2019-01-18T07:35:24.901Z,29.20
2019-01-18T07:37:53.732Z,22.60
2019-01-18T07:40:22.879Z,18.07
2019-01-18T07:42:52.095Z,24.03
2019-01-18T07:45:24.255Z,23.30
2019-01-18T07:47:53.061Z,15.30
2019-01-18T07:50:21.828Z,17.73
2019-01-18T07:52:50.640Z,18.57
2019-01-18T07:55:19.587Z,13.90
2019-01-18T07:57:48.444Z,19.63
2019-01-18T08:00:22.826Z,12.90
2019-01-18T08:02:51.561Z,12.30
2019-01-18T08:05:21.397Z,12.93
2019-01-18T08:07:50.829Z,16.60
2019-01-18T08:10:23.604Z,19.43
2019-01-18T08:12:52.470Z,12.60
2019-01-18T08:15:24.177Z,14.27
2019-01-18T08:17:53.278Z,12.20
2019-01-18T08:20:24.453Z,12.13
2019-01-18T08:22:53.487Z,13.23
2019-01-18T08:25:22.262Z,14.10
2019-01-18T08:27:50.956Z,13.33
2019-01-18T08:30:21.518Z,13.00
2019-01-18T08:32:50.280Z,13.13
2019-01-18T08:35:20.212Z,14.03
2019-01-18T08:37:48.741Z,12.97
2019-01-18T08:40:28.841Z,15.93
2019-01-18T08:42:57.684Z,17.63
2019-01-18T08:45:35.590Z,16.63
2019-01-18T08:48:05.425Z,14.53
2019-01-18T08:50:37.610Z,20.43
2019-01-18T08:53:08.465Z,18.20
2019-01-18T08:55:37.066Z,11.70
2019-01-18T08:58:09.900Z,20.50
2019-01-18T09:00:50.281Z,19.50
2019-01-18T09:03:18.963Z,11.60
2019-01-18T09:05:47.654Z,15.10
2019-01-18T09:08:16.359Z,11.60
2019-01-18T09:10:46.558Z,11.77
2019-01-18T09:13:15.227Z,13.63
2019-01-18T09:15:44.016Z,12.10
2019-01-18T09:18:12.766Z,13.63
2019-01-18T09:20:41.698Z,22.17
2019-01-18T09:23:10.729Z,19.40
2019-01-18T09:25:39.408Z,19.77
2019-01-18T09:28:07.992Z,23.23
2019-01-18T09:30:36.722Z,27.80
2019-01-18T09:33:06.125Z,23.97
2019-01-18T09:35:35.670Z,25.10
2019-01-18T09:38:06.552Z,29.13
2019-01-18T09:40:35.288Z,27.10
2019-01-18T09:43:03.972Z,28.60
2019-01-18T09:45:33.049Z,27.20
2019-01-18T09:48:01.976Z,29.67
2019-01-18T09:50:34.076Z,27.57
2019-01-18T09:53:05.032Z,25.90
2019-01-18T09:55:34.195Z,28.67
2019-01-18T09:58:03.352Z,34.27
2019-01-18T10:00:34.528Z,32.07
2019-01-18T10:03:03.691Z,26.43
2019-01-18T10:05:32.458Z,34.33
2019-01-18T10:08:01.729Z,33.13
2019-01-18T10:10:30.511Z,32.83
2019-01-18T10:12:59.292Z,30.40
2019-01-18T10:15:34.146Z,28.10
2019-01-18T10:18:03.240Z,33.37
2019-01-18T10:20:31.987Z,31.30
2019-01-18T10:23:00.722Z,31.97
2019-01-18T10:25:29.481Z,37.10
2019-01-18T10:27:58.291Z,35.20
2019-01-18T10:30:27.759Z,36.53
2019-01-18T10:32:56.562Z,32.97
2019-01-18T10:35:26.266Z,36.63
2019-01-18T10:37:55.158Z,40.60
2019-01-18T10:40:24.352Z,41.63
2019-01-18T10:42:53.215Z,38.30
2019-01-18T10:45:22.065Z,48.57
2019-01-18T10:47:50.717Z,41.20
2019-01-18T10:50:27.584Z,41.50
2019-01-18T10:52:56.708Z,39.83
2019-01-18T10:55:25.902Z,45.00
2019-01-18T10:57:54.712Z,46.40
2019-01-18T11:00:28.806Z,47.20
2019-01-18T11:02:57.925Z,41.50
2019-01-18T11:05:26.948Z,42.30
2019-01-18T11:07:55.783Z,45.90
2019-01-18T11:10:24.526Z,45.23
2019-01-18T11:12:53.731Z,46.00
2019-01-18T11:15:25.385Z,41.00
2019-01-18T11:17:54.500Z,41.00
2019-01-18T11:20:26.024Z,39.70
2019-01-18T11:22:56.176Z,49.17
2019-01-18T11:25:31.547Z,41.80
2019-01-18T11:27:58.401Z,41.63
2019-01-18T11:30:27.640Z,48.47
2019-01-18T11:32:56.418Z,47.47
2019-01-18T11:35:25.183Z,47.47
2019-01-18T11:37:54.418Z,47.97
2019-01-18T11:40:24.610Z,44.10
2019-01-18T11:42:53.158Z,46.47
2019-01-18T11:45:21.915Z,50.70
2019-01-18T11:47:51.107Z,50.20
2019-01-18T11:50:25.592Z,54.87
2019-01-18T11:52:54.263Z,57.67
2019-01-18T11:55:23.152Z,59.80
2019-01-18T11:57:52.339Z,53.53
2019-01-18T12:00:26.778Z,52.80
2019-01-18T12:02:55.396Z,54.10
2019-01-18T12:05:24.318Z,50.03
2019-01-18T12:07:52.929Z,45.97
2019-01-18T12:10:26.663Z,48.20
2019-01-18T12:12:55.532Z,47.47
2019-01-18T12:15:24.504Z,49.23
2019-01-18T12:17:53.083Z,50.40
2019-01-18T12:20:24.684Z,43.30
2019-01-18T12:22:53.571Z,43.43
2019-01-18T12:25:22.169Z,45.57
2019-01-18T12:27:51.255Z,43.37
2019-01-18T12:30:22.777Z,45.90
2019-01-18T12:32:51.469Z,46.47
2019-01-18T12:35:20.251Z,42.77
2019-01-18T12:37:49.087Z,38.37
2019-01-18T12:40:17.745Z,35.63
2019-01-18T12:42:46.523Z,33.67
2019-01-18T12:45:18.321Z,32.80
2019-01-18T12:47:47.377Z,33.17
2019-01-18T12:50:22.136Z,33.20
2019-01-18T12:52:51.225Z,31.47
2019-01-18T12:55:20.533Z,31.93
2019-01-18T12:57:49.651Z,34.87
2019-01-18T13:00:29.125Z,35.80
2019-01-18T13:02:58.091Z,30.40
2019-01-18T13:05:30.244Z,34.50
2019-01-18T13:07:58.910Z,29.13
2019-01-18T13:10:27.640Z,31.57
2019-01-18T13:12:56.133Z,27.23
2019-01-18T13:15:28.453Z,27.07
2019-01-18T13:17:57.016Z,31.00
2019-01-18T13:20:26.152Z,31.50
2019-01-18T13:22:55.355Z,25.63
2019-01-18T13:25:24.193Z,28.43
2019-01-18T13:27:52.915Z,31.80
2019-01-18T13:30:21.780Z,32.40
2019-01-18T13:32:50.306Z,37.00
2019-01-18T13:35:18.947Z,31.97
2019-01-18T13:37:47.600Z,32.17
2019-01-18T13:40:18.600Z,27.77
2019-01-18T13:42:47.056Z,31.40
2019-01-18T13:45:15.593Z,27.63
2019-01-18T13:47:45.459Z,26.77
2019-01-18T13:50:16.588Z,23.37
2019-01-18T13:52:45.515Z,21.80
2019-01-18T13:55:17.366Z,18.83
2019-01-18T13:57:46.052Z,19.77
2019-01-18T14:00:15.773Z,17.77
2019-01-18T14:02:48.427Z,23.17
2019-01-18T14:05:14.610Z,16.90
2019-01-18T14:07:43.288Z,20.57
2019-01-18T14:10:23.571Z,19.07
2019-01-18T14:12:52.362Z,18.73
2019-01-18T14:15:22.775Z,20.03
2019-01-18T14:17:51.305Z,18.73
2019-01-18T14:20:22.486Z,19.97
2019-01-18T14:22:51.829Z,17.30
2019-01-18T14:25:20.804Z,15.87
2019-01-18T14:27:50.406Z,16.53
2019-01-18T14:30:24.282Z,13.07
2019-01-18T14:32:55.666Z,13.53
2019-01-18T14:35:23.883Z,15.87
2019-01-18T14:37:52.950Z,17.40
2019-01-18T14:40:22.148Z,14.20
2019-01-18T14:42:52.803Z,14.80
2019-01-18T14:45:30.517Z,14.13
2019-01-18T14:48:00.076Z,16.60
2019-01-18T14:50:29.334Z,19.03
2019-01-18T14:52:58.228Z,13.47
2019-01-18T14:55:26.981Z,13.63
2019-01-18T14:57:55.769Z,16.10
2019-01-18T15:00:34.444Z,16.17
2019-01-18T15:03:04.581Z,11.27
2019-01-18T15:05:33.411Z,14.97
2019-01-18T15:08:02.577Z,17.03
2019-01-18T15:10:31.759Z,15.57
2019-01-18T15:13:11.643Z,14.60
2019-01-18T15:15:40.770Z,13.70
2019-01-18T15:18:09.598Z,22.77
2019-01-18T15:20:38.368Z,13.10
2019-01-18T15:23:07.885Z,15.40
2019-01-18T15:25:36.667Z,19.80
2019-01-18T15:28:05.495Z,22.90
2019-01-18T15:30:35.062Z,20.50
2019-01-18T15:33:09.041Z,26.90
2019-01-18T15:35:36.042Z,20.77
2019-01-18T15:38:06.481Z,21.13
2019-01-18T15:40:38.283Z,18.67
2019-01-18T15:43:07.442Z,21.33
2019-01-18T15:45:36.352Z,21.27
2019-01-18T15:48:05.563Z,25.80
2019-01-18T15:50:37.867Z,20.97
2019-01-18T15:53:07.112Z,23.20
2019-01-18T15:55:36.581Z,24.30
2019-01-18T15:58:06.240Z,23.23
2019-01-18T16:00:42.257Z,21.03
2019-01-18T16:03:15.903Z,24.17
2019-01-18T16:05:41.915Z,27.20
2019-01-18T16:08:11.386Z,30.70
2019-01-18T16:10:40.634Z,26.33
2019-01-18T16:13:09.744Z,23.90
2019-01-18T16:15:50.190Z,28.63
2019-01-18T16:18:21.830Z,35.20
2019-01-18T16:20:50.667Z,25.40
2019-01-18T16:23:19.473Z,25.97
2019-01-18T16:25:48.314Z,32.93
2019-01-18T16:28:17.561Z,28.80
2019-01-18T16:30:46.771Z,31.83
2019-01-18T16:33:15.615Z,35.53
2019-01-18T16:35:44.843Z,32.70
2019-01-18T16:38:14.412Z,36.23
2019-01-18T16:40:43.262Z,32.60
2019-01-18T16:43:29.871Z,26.70
2019-01-18T16:45:58.777Z,27.70
2019-01-18T16:48:27.640Z,28.93
2019-01-18T16:50:56.594Z,31.77
2019-01-18T16:53:25.365Z,29.93
2019-01-18T16:55:54.547Z,31.97
2019-01-18T16:58:23.327Z,24.80
2019-01-18T17:00:57.725Z,31.77
2019-01-18T17:03:30.247Z,26.77
2019-01-18T17:05:57.124Z,31.20
2019-01-18T17:08:26.300Z,37.77
2019-01-18T17:10:55.278Z,36.27
2019-01-18T17:13:24.396Z,38.77
2019-01-18T17:15:53.175Z,34.23
2019-01-18T17:18:23.632Z,37.47
2019-01-18T17:20:52.457Z,38.97
2019-01-18T17:23:21.620Z,37.07
2019-01-18T17:25:50.447Z,33.67
2019-01-18T17:28:19.301Z,35.35
2019-01-18T17:30:48.151Z,39.47
2019-01-18T17:33:17.446Z,36.30
2019-01-18T17:35:49.274Z,38.60
2019-01-18T17:38:30.061Z,29.47
2019-01-18T17:41:10.736Z,27.00
2019-01-18T17:43:48.073Z,27.30
2019-01-18T17:46:34.587Z,28.27
2019-01-18T17:49:11.886Z,34.47
2019-01-18T17:51:56.043Z,33.23
2019-01-18T17:54:27.822Z,30.97
2019-01-18T17:57:11.640Z,32.43
2019-01-18T17:59:43.466Z,39.77
2019-01-18T18:02:27.598Z,37.40
2019-01-18T18:05:15.645Z,34.63
2019-01-18T18:07:53.796Z,36.73
2019-01-18T18:10:45.307Z,26.30
2019-01-18T18:13:32.024Z,33.20
2019-01-18T18:16:22.849Z,35.40
2019-01-18T18:19:06.633Z,35.50
2019-01-18T18:22:10.972Z,31.93
2019-01-18T18:24:51.447Z,32.10
2019-01-18T18:27:34.749Z,27.37
2019-01-18T18:30:18.436Z,37.90
2019-01-18T18:33:04.824Z,28.10
2019-01-18T18:35:52.985Z,26.37
2019-01-18T18:38:34.055Z,30.30
2019-01-18T18:41:39.541Z,31.23
2019-01-18T18:44:14.598Z,29.03
2019-01-18T18:46:46.728Z,30.10
2019-01-18T18:49:50.279Z,33.77
2019-01-18T18:52:39.974Z,34.60
2019-01-18T18:55:17.362Z,23.73
2019-01-18T18:57:55.166Z,25.43
2019-01-18T19:00:27.149Z,29.50
2019-01-18T19:03:14.168Z,26.43
2019-01-18T19:06:02.289Z,27.53
2019-01-18T19:08:34.478Z,30.80
2019-01-18T19:11:14.778Z,38.30
2019-01-18T19:14:05.657Z,39.27
2019-01-18T19:17:01.688Z,43.53
2019-01-18T19:19:42.285Z,43.80
2019-01-18T19:22:29.015Z,51.13
2019-01-18T19:25:17.050Z,41.03
2019-01-18T19:28:10.894Z,42.97
2019-01-18T19:31:07.981Z,47.53
2019-01-18T19:33:48.350Z,42.53
2019-01-18T19:36:26.376Z,40.27
2019-01-18T19:39:01.011Z,35.53
2019-01-18T19:41:50.709Z,33.50
2019-01-18T19:44:31.454Z,37.00
2019-01-18T19:47:06.437Z,32.33
2019-01-18T19:50:00.763Z,33.90
2019-01-18T19:52:53.223Z,39.33
2019-01-18T19:55:54.797Z,35.37
2019-01-18T19:58:52.964Z,31.80
2019-01-18T20:01:25.083Z,33.53
2019-01-18T20:03:59.853Z,33.43
2019-01-18T20:06:49.919Z,34.40
2019-01-18T20:09:24.492Z,31.00
2019-01-18T20:12:14.271Z,28.70
2019-01-18T20:14:46.055Z,39.90
2019-01-18T20:17:29.810Z,32.40
2019-01-18T20:20:22.435Z,30.00
2019-01-18T20:22:59.874Z,37.80
2019-01-18T20:25:37.670Z,33.90
2019-01-18T20:28:12.420Z,32.70
2019-01-18T20:30:58.800Z,43.40
2019-01-18T20:33:59.013Z,35.93
2019-01-18T20:36:42.290Z,42.93
2019-01-18T20:39:38.129Z,45.83
2019-01-18T20:42:26.041Z,37.07
2019-01-18T20:45:18.460Z,40.13
2019-01-18T20:48:09.470Z,41.73
2019-01-18T20:50:50.128Z,52.97
2019-01-18T20:53:37.436Z,49.47
2019-01-18T20:56:40.781Z,40.73
2019-01-18T20:59:18.455Z,39.47
2019-01-18T21:01:59.149Z,33.03
2019-01-18T21:04:33.740Z,31.73
2019-01-18T21:07:10.939Z,65.50
2019-01-18T21:10:00.459Z,50.63
2019-01-18T21:12:32.334Z,44.87
2019-01-18T21:15:12.979Z,39.33
2019-01-18T21:17:44.727Z,36.80
2019-01-18T21:20:32.021Z,37.57
2019-01-18T21:23:16.105Z,37.23
2019-01-18T21:25:53.487Z,34.60
2019-01-18T21:28:44.374Z,36.60
2019-01-18T21:31:27.898Z,38.67
2019-01-18T21:34:16.311Z,39.63
2019-01-18T21:36:56.944Z,39.07
2019-01-18T21:39:38.045Z,33.30
2019-01-18T21:42:32.049Z,37.63
2019-01-18T21:45:23.354Z,43.33
2019-01-18T21:48:11.941Z,38.00
2019-01-18T21:50:52.666Z,35.17
2019-01-18T21:53:39.834Z,38.20
2019-01-18T21:56:14.473Z,37.00
2019-01-18T21:59:02.913Z,34.00
2019-01-18T22:01:34.896Z,32.80
2019-01-18T22:04:10.106Z,34.13
2019-01-18T22:06:45.083Z,34.57
2019-01-18T22:09:19.831Z,35.40
2019-01-18T22:12:06.717Z,35.43
2019-01-18T22:14:41.337Z,35.97
2019-01-18T22:17:24.735Z,34.07
2019-01-18T22:19:59.357Z,36.30
2019-01-18T22:22:46.553Z,36.53
2019-01-18T22:25:45.279Z,33.50
2019-01-18T22:28:34.685Z,32.30
2019-01-18T22:31:06.633Z,36.07
2019-01-18T22:33:38.495Z,33.43
2019-01-18T22:36:13.304Z,33.27
2019-01-18T22:38:57.447Z,35.97
2019-01-18T22:41:47.160Z,29.07
2019-01-18T22:44:25.134Z,34.50
2019-01-18T22:47:06.293Z,37.27
2019-01-18T22:49:38.026Z,35.57
2019-01-18T22:52:15.834Z,35.23
2019-01-18T22:55:18.678Z,32.60
2019-01-18T22:58:14.449Z,42.63
2019-01-18T23:01:10.202Z,34.33
2019-01-18T23:03:58.979Z,46.60
2019-01-18T23:06:45.308Z,36.63
2019-01-18T23:09:20.125Z,32.00
2019-01-18T23:12:03.866Z,34.23
2019-01-18T23:15:00.761Z,39.30
2019-01-18T23:17:38.760Z,39.60
2019-01-18T23:20:10.492Z,30.10
2019-01-18T23:23:02.881Z,29.07
2019-01-18T23:25:58.125Z,35.93
2019-01-18T23:28:38.559Z,31.70
2019-01-18T23:31:18.889Z,36.77
2019-01-18T23:33:57.012Z,29.50
2019-01-18T23:36:37.412Z,31.97
2019-01-18T23:39:15.539Z,34.50
2019-01-18T23:41:56.421Z,40.53
2019-01-18T23:44:36.967Z,38.70
2019-01-18T23:47:17.832Z,37.97
2019-01-18T23:49:52.379Z,39.20
2019-01-18T23:53:00.289Z,35.40
2019-01-18T23:55:53.318Z,41.70
2019-01-18T23:58:28.335Z,35.70
